Aeroporto :
LOGIN :

Iscrizione | Disclaimer

   EN    FR    IT 

 










Sommario :    VFR   VFR Marginale   IFR   IFR Intensivo   IFR Molto Intensivo
Visibilità : 
Base nubi : 
>= 8 km
>= 3000ft
5 / 8 km
1000 / 3000 ft
1500m / 5 km
500 / 1000 ft
800 / 1500m
200 / 500 ft
< 800m
< 200 ft
Simboli :   Temporali  Nebbia  Neve Forte  Precipitazioni Forti  Vento > 20 kt
SIGMETs :   Varie  Temporali  Ghiacco  Turbolenza  Onda orograficha  Ceneri Vulcaniche






- Altitudine del aeroporto : 19 ft
- Codice IATA : VTS


EVVA - Ventspils Int.

ULTIMO METAR :
  • 250620Z AUTO 09002KT 0300 FG VV001 14/14 Q1005

METARs OBSOLETI :
  • 250550Z AUTO 09003KT 0200 FG VV001 14/14 Q1005
  • 250520Z AUTO 11002KT 0200 FG VV001 12/12 Q1005
  • 250450Z AUTO 00000KT 0150 FG VV001 12/12 Q1005
  • 250420Z AUTO 00000KT 0250 FG VV001 12/12 Q1005
  • 250350Z AUTO 10001KT 0550 FG VV001 11/11 Q1005

TAF N/A



MetMap, La meteo Aeronautica in un colpo d'occhio ! - Copyright ORBIFLY Dicembre 2007 - Disclaimer

ORBIFLY MET'MAP TEAM :

Programmazione e sviluppo : Alexandra Zaïnal
Concezione : Baudouin d'Aumeries
Aiuto per la programmazione : Marc-Olivier Méhu
Supporto tecnico e logistico : Manuel Goepfert
Aiuto per la traduzione : Arnaldo La Scala

Contatto : metmap@orbifly.com




FONTI E CREDITI :

   NOAA